Terminal Aerodrome Forecast
Issued by NWS Sioux Falls, SD

Home | Current Version | Previous Version | Graphics & Text | Print | Product List | Glossary Off
Versions: 1 2 3 4 5 6 7 8 9 10 11 12 13

000
FTUS43 KFSD 160537
TAFHON
TAF
KHON 160537Z 1606/1706 30009KT P6SM SKC
     FM161000 26006KT P6SM SKC
     FM161400 20007KT P6SM SKC
     FM161800 19013G19KT P6SM SKC
     FM170000 17010KT P6SM SCT120=

USA.gov is the U.S. government's official web portal to all federal, state and local government web resources and services.